Time;durP1;ratioP1;P1;durP2;ratioP2;P2;SDS_P1;SDS_P2;PMS_P1;PMS_P2;Temp;Humidity;BMP_temperature;BMP_pressure;BME280_temperature;BME280_humidity;BME280_pressure;Samples;Min_cycle;Max_cycle;Signal;HPM_P1;HPM_P2
2023/06/22 00:01:17;;;;;;;40.63;25.63;;;;;;;-143.21;79.74;71931.38;5086351;28;20289;-78
2023/06/22 00:03:44;;;;;;;39.53;25.65;;;;;;;-143.21;79.66;71931.38;5088660;28;20277;-78
2023/06/22 00:06:12;;;;;;;33.47;23.48;;;;;;;-143.21;79.53;71927.44;5090980;28;20208;-78
2023/06/22 00:08:39;;;;;;;34.55;24.95;;;;;;;-143.21;79.63;71919.50;5090188;28;20659;-78
2023/06/22 00:11:06;;;;;;;33.22;25.70;;;;;;;-143.21;79.84;71923.47;5091565;28;20209;-78
2023/06/22 00:13:33;;;;;;;37.88;24.25;;;;;;;-143.21;80.00;71925.44;5099938;28;20203;-79
2023/06/22 00:16:00;;;;;;;31.85;20.80;;;;;;;-143.21;79.58;71927.44;5091057;28;20213;-78
2023/06/22 00:18:27;;;;;;;24.70;16.73;;;;;;;-143.21;78.54;71939.31;5102848;28;20227;-78
2023/06/22 00:20:58;;;;;;;27.75;19.65;;;;;;;-143.21;78.73;71929.41;5094246;28;20232;-78
2023/06/22 00:23:26;;;;;;;32.33;20.67;;;;;;;-143.21;79.02;71933.38;5093306;28;20231;-78
2023/06/22 00:25:53;;;;;;;30.95;19.30;;;;;;;-143.21;79.26;71929.41;5091459;28;20200;-78
2023/06/22 00:28:20;;;;;;;26.20;19.10;;;;;;;-143.21;78.90;71917.50;5094997;28;20201;-78
2023/06/22 00:30:47;;;;;;;19.63;15.52;;;;;;;-143.21;77.29;71923.47;5091011;28;20200;-78
2023/06/22 00:33:15;;;;;;;23.50;15.52;;;;;;;-143.21;76.61;71919.50;5101644;28;20213;-78
2023/06/22 00:35:41;;;;;;;26.58;17.10;;;;;;;-143.21;77.40;71927.44;5100791;28;20209;-78
2023/06/22 00:38:09;;;;;;;22.05;16.48;;;;;;;-143.21;77.70;71923.47;5099637;28;20230;-77
2023/06/22 00:40:37;;;;;;;23.83;16.23;;;;;;;-143.21;77.43;71923.47;5091788;28;20193;-78
2023/06/22 00:43:04;;;;;;;25.67;14.95;;;;;;;-143.21;76.78;71935.34;5094315;28;20205;-78
2023/06/22 00:45:31;;;;;;;22.20;13.88;;;;;;;-143.21;76.14;71937.34;5091407;28;20228;-78
2023/06/22 00:47:58;;;;;;;20.08;14.00;;;;;;;-143.21;75.90;71931.38;5093913;28;20197;-78
2023/06/22 00:50:27;;;;;;;19.33;13.10;;;;;;;-143.21;75.49;71931.38;5093545;28;20667;-78
2023/06/22 00:52:58;;;;;;;26.70;13.23;;;;;;;-143.21;74.93;71929.41;5098642;28;20208;-78
2023/06/22 00:55:25;;;;;;;21.10;14.15;;;;;;;-143.21;75.70;71941.31;5087357;28;20205;-78
2023/06/22 00:57:55;;;;;;;17.90;13.68;;;;;;;-143.21;76.46;71947.25;5090052;28;20220;-78
2023/06/22 01:00:24;;;;;;;16.27;12.20;;;;;;;-143.21;76.29;71949.25;5087184;28;20200;-78
2023/06/22 01:02:52;;;;;;;17.45;13.15;;;;;;;-143.21;76.59;71949.25;5091573;28;20204;-78
2023/06/22 01:05:20;;;;;;;21.42;13.38;;;;;;;-143.21;77.22;71965.09;5096323;28;20232;-78
2023/06/22 01:07:58;;;;;;;17.75;13.10;;;;;;;-143.21;77.17;71957.16;5094121;28;20199;-78
2023/06/22 01:10:32;;;;;;;22.85;12.73;;;;;;;-143.21;77.40;71961.13;5091191;28;20207;-78
2023/06/22 01:13:05;;;;;;;17.90;13.93;;;;;;;-143.21;77.81;71961.13;5097252;28;20277;-78
2023/06/22 01:15:37;;;;;;;21.45;13.50;;;;;;;-143.21;77.77;71967.09;5094687;28;20208;-85
2023/06/22 01:18:05;;;;;;;19.13;13.30;;;;;;;-143.21;77.87;71967.09;5101843;28;20220;-85
2023/06/22 01:20:35;;;;;;;26.95;13.32;;;;;;;-143.21;77.67;71957.16;5104448;28;20238;-85
2023/06/22 01:23:11;;;;;;;19.75;11.88;;;;;;;-143.21;76.03;71969.06;5095220;28;20203;-84
2023/06/22 01:25:49;;;;;;;16.25;12.80;;;;;;;-143.21;76.44;71977.00;5099743;28;20287;-84
2023/06/22 01:28:26;;;;;;;18.27;11.20;;;;;;;-143.21;75.58;71978.97;5103047;28;20262;-84
2023/06/22 01:31:03;;;;;;;19.70;10.48;;;;;;;-143.21;74.62;71992.88;5093103;28;20205;-84
2023/06/22 01:33:33;;;;;;;19.63;10.15;;;;;;;-143.21;74.13;71990.88;5096980;28;20205;-84
2023/06/22 01:36:00;;;;;;;15.57;10.77;;;;;;;-143.21;75.27;71998.81;5101761;28;20271;-85
2023/06/22 01:38:29;;;;;;;14.55;11.00;;;;;;;-143.21;76.29;72004.75;5106051;28;20224;-85
2023/06/22 01:40:58;;;;;;;17.13;11.65;;;;;;;-143.21;76.66;72006.75;5095482;28;20204;-85
2023/06/22 01:43:27;;;;;;;21.25;11.88;;;;;;;-143.21;76.46;72008.72;5096574;28;20209;-85
2023/06/22 01:45:57;;;;;;;18.67;11.57;;;;;;;-143.21;76.99;72002.78;5102219;28;20192;-86
2023/06/22 01:48:25;;;;;;;16.48;11.90;;;;;;;-143.21;77.41;72004.75;5092256;28;20660;-86
2023/06/22 01:50:52;;;;;;;15.82;11.95;;;;;;;-143.21;77.40;72004.75;5095147;28;20257;-86
2023/06/22 01:53:21;;;;;;;13.88;10.82;;;;;;;-143.21;77.94;72014.69;5096191;28;20693;-85
2023/06/22 01:55:48;;;;;;;16.05;11.15;;;;;;;-143.21;77.84;72020.63;5102026;28;20196;-86
2023/06/22 01:58:15;;;;;;;14.80;11.35;;;;;;;-143.21;78.07;72010.72;5100327;28;20238;-85
2023/06/22 02:00:49;;;;;;;16.40;11.50;;;;;;;-143.21;77.48;72026.56;5103456;28;20211;-86
2023/06/22 02:03:23;;;;;;;17.40;11.30;;;;;;;-143.21;76.77;72024.59;5096162;28;20220;-85
2023/06/22 02:05:53;;;;;;;16.63;11.38;;;;;;;-143.21;76.82;72032.53;5097635;28;20207;-85
2023/06/22 02:08:23;;;;;;;17.92;11.82;;;;;;;-143.21;77.58;72038.47;5102088;28;20577;-86
2023/06/22 02:10:53;;;;;;;20.95;13.93;;;;;;;-143.21;77.74;72036.50;5097900;28;20203;-86
2023/06/22 02:13:20;;;;;;;20.08;13.93;;;;;;;-143.21;78.06;72040.44;5093899;28;20246;-86
2023/06/22 02:15:48;;;;;;;18.02;13.73;;;;;;;-143.21;78.45;72022.59;5104672;28;20223;-86
2023/06/22 02:18:16;;;;;;;21.05;14.60;;;;;;;-143.21;78.56;72032.53;5095903;28;20228;-86
2023/06/22 02:20:43;;;;;;;18.58;13.73;;;;;;;-143.21;78.99;72046.41;5103068;28;20754;-84
2023/06/22 02:23:10;;;;;;;23.50;15.95;;;;;;;-143.21;79.27;72052.34;5095745;28;20211;-84
2023/06/22 02:25:38;;;;;;;22.30;15.23;;;;;;;-143.21;78.71;72034.50;5098775;28;20213;-83
2023/06/22 02:28:05;;;;;;;23.05;16.05;;;;;;;-143.21;78.86;72030.53;5106757;28;20196;-84
2023/06/22 02:30:33;;;;;;;23.45;15.75;;;;;;;-143.21;79.28;72044.41;5103960;28;20200;-83
2023/06/22 02:33:00;;;;;;;19.55;15.38;;;;;;;-143.21;79.45;72042.44;5098238;28;20207;-84
2023/06/22 02:35:31;;;;;;;27.92;15.07;;;;;;;-143.21;79.23;72038.47;5093048;28;20219;-84
2023/06/22 02:37:58;;;;;;;26.90;15.00;;;;;;;-143.21;79.44;72040.44;5091973;28;20248;-84
2023/06/22 02:40:25;;;;;;;27.23;15.32;;;;;;;-143.21;79.54;72044.41;5097404;28;20196;-84
2023/06/22 02:42:52;;;;;;;21.38;14.48;;;;;;;-143.21;80.37;72054.34;5094222;28;20201;-84
2023/06/22 02:45:19;;;;;;;18.10;14.02;;;;;;;-143.21;80.62;72048.38;5092634;28;20208;-84
2023/06/22 02:47:47;;;;;;;21.77;13.93;;;;;;;-143.21;80.36;72052.34;5099673;28;20197;-84
2023/06/22 02:50:14;;;;;;;21.58;14.68;;;;;;;-143.21;80.39;72058.31;5089275;28;20212;-84
2023/06/22 02:52:42;;;;;;;24.15;15.40;;;;;;;-143.21;80.21;72062.25;5098409;28;20211;-84
2023/06/22 02:55:09;;;;;;;20.77;14.70;;;;;;;-143.21;80.37;72060.28;5094896;28;20200;-83
2023/06/22 02:57:43;;;;;;;26.02;14.50;;;;;;;-143.21;81.07;72068.22;5098619;28;20867;-84
2023/06/22 03:00:16;;;;;;;21.30;14.85;;;;;;;-143.21;81.74;72076.16;5089983;28;20218;-84
2023/06/22 03:02:43;;;;;;;18.63;14.85;;;;;;;-143.21;81.71;72078.13;5093851;28;20740;-85
2023/06/22 03:05:13;;;;;;;29.85;14.88;;;;;;;-143.21;81.74;72068.22;5093158;28;20326;-85
2023/06/22 03:07:42;;;;;;;25.67;14.68;;;;;;;-143.21;81.61;72056.31;5094065;28;20203;-85
2023/06/22 03:10:10;;;;;;;42.00;15.48;;;;;;;-143.21;81.34;72062.25;5090722;28;20624;-86
2023/06/22 03:12:37;;;;;;;25.33;14.55;;;;;;;-143.21;81.16;72054.34;5096471;28;20205;-85
2023/06/22 03:15:05;;;;;;;24.75;14.45;;;;;;;-143.21;80.77;72058.31;5102337;28;20208;-85
2023/06/22 03:17:32;;;;;;;23.33;14.35;;;;;;;-143.21;80.52;72056.31;5097667;28;20226;-84
2023/06/22 03:19:59;;;;;;;19.98;14.57;;;;;;;-143.21;80.58;72064.25;5099976;28;20229;-85
2023/06/22 03:22:26;;;;;;;24.00;14.35;;;;;;;-143.21;80.21;72064.25;5099791;28;20195;-85
2023/06/22 03:24:54;;;;;;;18.70;13.52;;;;;;;-143.21;79.78;72066.22;5098251;28;20208;-85
2023/06/22 03:27:21;;;;;;;24.42;13.90;;;;;;;-143.21;79.84;72064.25;5096430;28;20708;-84
2023/06/22 03:29:48;;;;;;;24.08;14.23;;;;;;;-143.21;79.70;72064.25;5093093;28;20200;-84
2023/06/22 03:32:18;;;;;;;19.30;13.05;;;;;;;-143.21;79.49;72062.25;5092148;28;20236;-84
2023/06/22 03:34:46;;;;;;;22.50;13.75;;;;;;;-143.21;79.61;72074.16;5097289;28;20245;-84
2023/06/22 03:37:13;;;;;;;23.98;13.65;;;;;;;-143.21;79.68;72072.19;5100332;28;20215;-84
2023/06/22 03:39:40;;;;;;;23.42;13.10;;;;;;;-143.21;79.34;72072.19;5101353;28;20200;-85
2023/06/22 03:42:09;;;;;;;19.88;13.13;;;;;;;-143.21;78.81;72078.13;5098596;28;20283;-85
2023/06/22 03:44:36;;;;;;;18.13;12.85;;;;;;;-143.21;78.51;72078.13;5102926;28;20242;-83
2023/06/22 03:47:03;;;;;;;32.35;12.88;;;;;;;-143.21;78.68;72076.16;5102688;28;20200;-84
2023/06/22 03:49:33;;;;;;;21.20;13.85;;;;;;;-143.21;79.33;72080.13;5098806;28;20200;-85
2023/06/22 03:52:01;;;;;;;17.95;13.50;;;;;;;-143.21;79.30;72084.06;5099327;28;20200;-85
2023/06/22 03:54:29;;;;;;;22.38;13.70;;;;;;;-143.21;79.18;72092.00;5087608;28;20196;-85
2023/06/22 03:56:55;;;;;;;21.17;13.82;;;;;;;-143.21;78.92;72074.16;5091714;28;20586;-85
2023/06/22 03:59:24;;;;;;;29.60;14.05;;;;;;;-143.21;78.79;72072.19;5096844;28;20228;-85
2023/06/22 04:01:51;;;;;;;17.10;13.13;;;;;;;-143.21;78.75;72076.16;5089878;28;20201;-85
2023/06/22 04:04:18;;;;;;;20.77;14.50;;;;;;;-143.21;78.37;72082.09;5089205;28;20299;-85
2023/06/22 04:06:45;;;;;;;19.95;13.40;;;;;;;-143.21;78.39;72088.03;5097209;28;20204;-85
2023/06/22 04:09:12;;;;;;;19.63;13.15;;;;;;;-143.21;79.33;72086.06;5102513;28;20207;-84
2023/06/22 04:11:38;;;;;;;26.48;13.80;;;;;;;-143.21;80.01;72076.16;5102021;28;20200;-84
2023/06/22 04:14:05;;;;;;;18.83;13.00;;;;;;;-143.21;80.03;72078.13;5098980;28;20208;-84
2023/06/22 04:16:34;;;;;;;17.95;13.35;;;;;;;-143.21;80.50;72070.19;5099050;28;20208;-84
2023/06/22 04:19:01;;;;;;;26.98;13.93;;;;;;;-143.21;80.13;72068.22;5096031;28;20701;-84
2023/06/22 04:21:27;;;;;;;21.65;14.00;;;;;;;-143.21;79.84;72058.31;5099851;28;20710;-84
2023/06/22 04:23:54;;;;;;;21.70;13.43;;;;;;;-143.21;79.60;72042.44;5096201;28;20196;-84
2023/06/22 04:26:26;;;;;;;21.10;13.77;;;;;;;-143.21;79.79;72046.41;5092266;28;20212;-85
2023/06/22 04:28:55;;;;;;;21.08;13.55;;;;;;;-143.21;80.10;72050.38;5089586;28;20647;-83
2023/06/22 04:31:31;;;;;;;23.33;13.95;;;;;;;-143.21;79.76;72036.50;5088820;28;20228;-83
2023/06/22 04:34:05;;;;;;;17.50;13.60;;;;;;;-143.21;79.32;72044.41;5089378;28;20345;-82
2023/06/22 04:36:37;;;;;;;18.80;13.55;;;;;;;-143.21;78.76;72036.50;5100934;28;20193;-82
2023/06/22 04:39:05;;;;;;;18.40;13.80;;;;;;;-143.21;78.66;72022.59;5090535;28;20251;-81
2023/06/22 04:41:41;;;;;;;18.75;13.15;;;;;;;-143.21;78.64;72020.63;5094951;28;20287;-82
2023/06/22 04:44:09;;;;;;;22.70;13.48;;;;;;;-143.21;78.68;72022.59;5096641;28;20209;-81
2023/06/22 04:46:37;;;;;;;18.23;13.15;;;;;;;-143.21;78.54;72028.56;5095804;28;20265;-82
2023/06/22 04:49:12;;;;;;;17.25;13.23;;;;;;;-143.21;78.56;72020.63;5089356;28;20197;-82
2023/06/22 04:51:41;;;;;;;23.85;13.80;;;;;;;-143.21;78.75;72016.66;5099785;28;20723;-82
2023/06/22 04:54:09;;;;;;;23.65;13.88;;;;;;;-143.21;78.30;72010.72;5098087;28;20729;-82
2023/06/22 04:56:36;;;;;;;23.23;13.57;;;;;;;-143.21;77.58;72022.59;5100822;28;20196;-82
2023/06/22 04:59:04;;;;;;;24.08;13.80;;;;;;;-143.21;78.11;72022.59;5096534;28;20231;-82
2023/06/22 05:01:31;;;;;;;16.98;13.45;;;;;;;-143.21;78.17;72016.66;5102731;28;20295;-82
2023/06/22 05:04:00;;;;;;;23.33;14.43;;;;;;;-143.21;77.74;72016.66;5098181;28;20201;-82
2023/06/22 05:06:29;;;;;;;27.13;19.75;;;;;;;-143.21;77.72;72020.63;5099783;28;20343;-82
2023/06/22 05:08:58;;;;;;;38.65;22.77;;;;;;;-143.21;77.83;72018.63;5102039;28;20196;-81
2023/06/22 05:11:25;;;;;;;27.05;19.13;;;;;;;-143.21;77.25;72016.66;5089794;28;20263;-82
2023/06/22 05:13:52;;;;;;;24.10;19.23;;;;;;;-143.21;77.17;72006.75;5090653;28;20647;-81
2023/06/22 05:16:24;;;;;;;33.40;17.73;;;;;;;-143.21;77.60;71996.81;5096932;28;20196;-82
2023/06/22 05:18:54;;;;;;;20.67;16.63;;;;;;;-143.21;77.67;71986.91;5103041;28;20239;-83
2023/06/22 05:21:26;;;;;;;18.65;14.50;;;;;;;-143.21;77.38;71984.94;5099735;28;20253;-83
2023/06/22 05:23:55;;;;;;;19.13;14.13;;;;;;;-143.21;76.57;71978.97;5090930;28;20208;-82
2023/06/22 05:26:23;;;;;;;19.75;14.40;;;;;;;-143.21;76.32;71967.09;5091954;28;20196;-83
2023/06/22 05:28:50;;;;;;;21.75;15.25;;;;;;;-143.21;76.69;71963.13;5095543;28;20195;-83
2023/06/22 05:31:19;;;;;;;17.77;14.75;;;;;;;-143.21;76.26;71959.16;5105428;28;20639;-82
2023/06/22 05:33:47;;;;;;;18.30;14.13;;;;;;;-143.21;76.19;71963.13;5106045;28;20288;-82
2023/06/22 05:36:14;;;;;;;20.60;14.18;;;;;;;-143.21;75.80;71945.28;5095170;28;20208;-82
2023/06/22 05:38:41;;;;;;;20.02;14.00;;;;;;;-143.21;76.09;71947.25;5107367;28;20227;-83
2023/06/22 05:41:10;;;;;;;17.15;13.60;;;;;;;-143.21;75.07;71943.28;5095561;28;20201;-82
2023/06/22 05:43:36;;;;;;;20.52;15.02;;;;;;;-143.21;75.11;71937.34;5098682;28;20253;-83
2023/06/22 05:46:04;;;;;;;23.58;18.60;;;;;;;-143.21;75.35;71935.34;5101422;28;20272;-83
2023/06/22 05:48:31;;;;;;;23.70;15.90;;;;;;;-143.21;75.52;71927.44;5097716;28;20200;-83
2023/06/22 05:50:58;;;;;;;21.48;15.52;;;;;;;-143.21;75.75;71931.38;5094541;28;20269;-83
2023/06/22 05:53:25;;;;;;;24.23;16.23;;;;;;;-143.21;74.96;71915.53;5097498;28;20211;-83
2023/06/22 05:55:51;;;;;;;24.27;16.67;;;;;;;-143.21;74.61;71913.53;5098587;28;20211;-82
2023/06/22 05:58:20;;;;;;;23.92;16.13;;;;;;;-143.21;74.43;71921.47;5100721;28;20665;-83
2023/06/22 06:00:47;;;;;;;23.85;16.40;;;;;;;-143.21;74.96;71905.63;5093745;28;20243;-83
2023/06/22 06:03:16;;;;;;;22.85;15.82;;;;;;;-143.21;74.89;71895.69;5095406;28;20204;-82
2023/06/22 06:05:44;;;;;;;25.48;18.48;;;;;;;-143.21;73.70;71887.78;5097797;28;20293;-82
2023/06/22 06:08:12;;;;;;;29.92;18.65;;;;;;;-143.21;73.25;71875.88;5094197;28;20208;-81
2023/06/22 06:10:39;;;;;;;32.47;20.70;;;;;;;-143.21;72.86;71863.97;5096694;28;20651;-82
2023/06/22 06:13:05;;;;;;;27.65;20.08;;;;;;;-143.21;72.44;71846.13;5096437;28;20212;-82
2023/06/22 06:15:35;;;;;;;39.30;30.35;;;;;;;-143.21;71.90;71832.25;5093709;28;20205;-83
2023/06/22 06:18:04;;;;;;;37.33;25.58;;;;;;;-143.21;70.81;71824.31;5097209;28;20227;-82
2023/06/22 06:20:30;;;;;;;25.58;17.92;;;;;;;-143.21;70.65;71812.41;5092915;28;20266;-85
2023/06/22 06:22:57;;;;;;;21.88;16.48;;;;;;;-143.21;70.86;71818.38;5096536;28;20626;-82
2023/06/22 06:25:25;;;;;;;21.50;16.73;;;;;;;-143.21;70.61;71810.44;5089743;28;20204;-81
2023/06/22 06:27:54;;;;;;;21.17;16.30;;;;;;;-143.21;70.16;71798.53;5094432;28;20254;-82
2023/06/22 06:30:21;;;;;;;24.75;17.23;;;;;;;-143.21;69.78;71794.56;5098445;28;20201;-81
2023/06/22 06:32:50;;;;;;;28.80;15.30;;;;;;;-143.21;68.63;71780.69;5094206;28;20266;-81
2023/06/22 06:35:18;;;;;;;25.42;14.38;;;;;;;-143.21;68.53;71762.84;5093796;28;20270;-80
2023/06/22 06:37:47;;;;;;;23.38;14.02;;;;;;;-143.21;67.56;71748.97;5097770;28;20219;-81
2023/06/22 06:40:15;;;;;;;17.90;13.50;;;;;;;-143.21;67.05;71737.06;5098743;28;20854;-81
2023/06/22 06:42:44;;;;;;;21.00;13.95;;;;;;;-143.21;66.82;71717.25;5094337;28;20216;-80
2023/06/22 06:45:12;;;;;;;24.42;14.38;;;;;;;-143.21;66.76;71703.34;5093071;28;21665;-81
2023/06/22 06:47:40;;;;;;;20.33;14.05;;;;;;;-143.21;67.21;71693.44;5094394;28;20456;-81
2023/06/22 06:50:09;;;;;;;18.48;13.55;;;;;;;-143.21;67.80;71669.66;5092053;28;20276;-81
2023/06/22 06:52:36;;;;;;;19.02;13.60;;;;;;;-143.21;67.16;71645.88;5093645;28;20270;-81
2023/06/22 06:55:04;;;;;;;22.70;13.93;;;;;;;-143.21;66.72;71626.03;5089994;28;20197;-81
2023/06/22 06:57:32;;;;;;;20.70;13.23;;;;;;;-143.21;66.37;71604.22;5097648;28;20262;-81
2023/06/22 06:59:59;;;;;;;22.25;14.02;;;;;;;-143.21;66.04;71584.41;5096330;28;20717;-81
2023/06/22 07:02:27;;;;;;;22.67;14.00;;;;;;;-143.21;65.41;71560.59;5097772;28;20261;-81
2023/06/22 07:04:55;;;;;;;21.00;13.80;;;;;;;-143.21;63.60;71540.78;5101850;28;20288;-81
2023/06/22 07:07:23;;;;;;;22.10;14.48;;;;;;;-143.21;63.04;71516.97;5099603;28;20208;-81
2023/06/22 07:09:50;;;;;;;21.55;14.18;;;;;;;-143.21;62.57;71503.09;5095811;28;20228;-81
2023/06/22 07:12:17;;;;;;;18.83;13.60;;;;;;;-143.21;62.30;71489.22;5104266;28;20208;-82
2023/06/22 07:14:44;;;;;;;21.85;14.30;;;;;;;-143.21;62.41;71481.28;5096700;28;21553;-83
2023/06/22 07:17:11;;;;;;;23.13;13.48;;;;;;;-143.21;62.67;71475.34;5099719;28;20208;-82
2023/06/22 07:19:38;;;;;;;24.55;14.77;;;;;;;-143.21;62.67;71457.50;5093836;28;20243;-81
2023/06/22 07:22:05;;;;;;;20.30;13.18;;;;;;;-143.21;62.59;71447.59;5093534;28;20204;-81
2023/06/22 07:24:33;;;;;;;20.80;13.73;;;;;;;-143.21;62.86;71443.63;5098082;28;20244;-81
2023/06/22 07:27:02;;;;;;;25.27;12.93;;;;;;;-143.21;62.91;71431.72;5098611;28;20589;-80
2023/06/22 07:29:28;;;;;;;18.30;13.38;;;;;;;-143.21;63.12;71433.72;5089728;28;20236;-80
2023/06/22 07:31:56;;;;;;;22.25;13.88;;;;;;;-143.21;63.17;71421.81;5092800;28;20219;-81
2023/06/22 07:34:23;;;;;;;20.58;12.85;;;;;;;-143.21;63.04;71413.88;5092831;28;20211;-81
2023/06/22 07:36:50;;;;;;;22.20;13.32;;;;;;;-143.21;62.70;71409.91;5088529;28;20205;-81
2023/06/22 07:39:16;;;;;;;18.35;12.95;;;;;;;-143.21;61.68;71400.00;5093284;28;20282;-80
2023/06/22 07:41:44;;;;;;;19.42;14.00;;;;;;;-143.21;61.97;71403.97;5090541;28;20216;-81
2023/06/22 07:44:11;;;;;;;20.92;13.52;;;;;;;-143.21;62.33;71403.97;5092805;28;20209;-81
2023/06/22 07:46:38;;;;;;;20.45;13.10;;;;;;;-143.21;62.26;71392.06;5094664;28;20663;-82
2023/06/22 07:49:05;;;;;;;16.80;12.48;;;;;;;-143.21;61.69;71392.06;5096054;28;20213;-82
2023/06/22 07:51:32;;;;;;;18.88;12.98;;;;;;;-143.21;61.65;71386.13;5091482;28;20197;-81
2023/06/22 07:53:59;;;;;;;20.23;12.23;;;;;;;-143.21;61.85;71382.16;5092903;28;20580;-82
2023/06/22 07:56:25;;;;;;;13.73;10.55;;;;;;;-143.21;62.83;71378.19;5096989;28;20197;-82
2023/06/22 07:58:54;;;;;;;20.80;13.32;;;;;;;-143.21;62.30;71362.34;5095821;28;20221;-82
2023/06/22 08:01:21;;;;;;;14.50;12.38;;;;;;;-143.21;61.49;71362.34;5096670;28;20214;-82
2023/06/22 08:03:49;;;;;;;18.35;12.13;;;;;;;-143.21;61.80;71356.38;5096422;28;20208;-82
2023/06/22 08:06:16;;;;;;;19.85;13.40;;;;;;;-143.21;60.74;71326.66;5095191;28;20215;-82
2023/06/22 08:08:43;;;;;;;16.40;12.48;;;;;;;-143.21;61.57;71328.63;5097097;28;20565;-82
2023/06/22 08:11:10;;;;;;;15.40;11.30;;;;;;;-143.21;62.63;71308.81;5095905;28;20295;-83
2023/06/22 08:13:37;;;;;;;17.52;12.63;;;;;;;-143.21;60.22;71292.94;5101140;28;20207;-82
2023/06/22 08:16:07;;;;;;;15.88;12.82;;;;;;;-143.21;60.89;71294.94;5097367;28;20293;-82
2023/06/22 08:18:34;;;;;;;16.90;12.15;;;;;;;-143.21;60.43;71300.88;5089323;28;20662;-87
2023/06/22 08:21:00;;;;;;;17.17;12.50;;;;;;;-143.21;60.54;71308.81;5100270;28;20240;-84
2023/06/22 08:23:27;;;;;;;19.33;13.52;;;;;;;-143.21;61.20;71304.84;5104945;28;20245;-84
2023/06/22 08:25:54;;;;;;;17.88;12.90;;;;;;;-143.21;60.88;71304.84;5104694;28;20207;-85
2023/06/22 08:28:21;;;;;;;15.82;12.73;;;;;;;-143.21;61.16;71294.94;5098265;28;20229;-85
2023/06/22 08:30:48;;;;;;;15.63;12.13;;;;;;;-143.21;61.39;71296.91;5099647;28;20658;-86
2023/06/22 08:33:17;;;;;;;17.58;13.05;;;;;;;-143.21;61.73;71290.97;5100441;28;20207;-87
2023/06/22 08:35:44;;;;;;;12.98;11.57;;;;;;;-143.21;61.40;71302.84;5097961;28;20205;-85
2023/06/22 08:38:13;;;;;;;16.27;12.05;;;;;;;-143.21;61.44;71296.91;5100803;28;20291;-87
2023/06/22 08:40:42;;;;;;;20.13;11.85;;;;;;;-143.21;61.35;71290.97;5099307;28;20224;-87
2023/06/22 08:43:10;;;;;;;13.13;11.73;;;;;;;-143.21;60.88;71288.97;5102250;28;20203;-87
2023/06/22 08:45:37;;;;;;;14.95;10.85;;;;;;;-143.21;60.67;71283.03;5097817;28;20641;-88
2023/06/22 08:48:04;;;;;;;16.92;12.63;;;;;;;-143.21;60.98;71267.19;5104771;28;20716;-87
2023/06/22 08:50:33;;;;;;;17.15;12.23;;;;;;;-143.21;60.81;71255.28;5107374;28;20629;-86
2023/06/22 08:53:00;;;;;;;18.08;12.93;;;;;;;-143.21;60.55;71245.38;5093884;28;20203;-82
2023/06/22 08:55:27;;;;;;;12.68;11.25;;;;;;;-143.21;60.47;71235.44;5094232;28;20200;-84
2023/06/22 08:57:54;;;;;;;13.75;10.50;;;;;;;-143.21;56.81;71215.63;5094149;28;20664;-82
2023/06/22 09:00:21;;;;;;;13.55;10.57;;;;;;;-143.21;56.59;71209.69;5094426;28;20658;-82
2023/06/22 09:02:51;;;;;;;16.77;11.27;;;;;;;-143.21;57.31;71205.72;5094011;28;20200;-85
2023/06/22 09:05:18;;;;;;;13.00;11.20;;;;;;;-143.21;57.02;71195.81;5094616;28;20192;-89
2023/06/22 09:07:46;;;;;;;12.35;10.95;;;;;;;-143.21;57.77;71189.84;5095118;28;20193;-88
2023/06/22 09:10:13;;;;;;;9.75;8.75;;;;;;;-143.21;58.55;71181.94;5094430;28;20273;-82
2023/06/22 09:12:40;;;;;;;11.63;10.43;;;;;;;-143.21;57.14;71181.94;5094170;28;20207;-83
2023/06/22 09:15:08;;;;;;;14.35;11.50;;;;;;;-143.21;55.43;71175.97;5094291;28;20201;-82
2023/06/22 09:17:39;;;;;;;13.85;10.65;;;;;;;-143.21;55.50;71162.09;5093991;28;20195;-82
2023/06/22 09:20:11;;;;;;;13.88;10.63;;;;;;;-143.21;55.69;71154.16;5093798;28;20233;-82
2023/06/22 09:22:38;;;;;;;10.25;9.18;;;;;;;-143.21;56.85;71150.22;5093913;28;20181;-82
2023/06/22 09:25:07;;;;;;;14.00;10.75;;;;;;;-143.21;56.45;71136.31;5093925;28;20280;-82
2023/06/22 09:27:34;;;;;;;14.90;11.30;;;;;;;-143.21;56.10;71126.41;5094148;28;20643;-83
2023/06/22 09:30:04;;;;;;;13.60;11.20;;;;;;;-143.21;55.22;71120.47;5093940;28;20196;-86
2023/06/22 09:32:34;;;;;;;19.35;11.07;;;;;;;-143.21;54.67;71112.53;5093843;28;20195;-87
2023/06/22 09:35:05;;;;;;;12.30;10.13;;;;;;;-143.21;55.48;71110.56;5093538;28;20204;-86
2023/06/22 09:37:32;;;;;;;12.13;10.82;;;;;;;-143.21;54.17;71102.63;5093947;28;20239;-83
2023/06/22 09:39:59;;;;;;;13.63;10.07;;;;;;;-143.21;53.33;71084.78;5093399;28;20224;-84
2023/06/22 09:42:27;;;;;;;19.48;10.90;;;;;;;-143.21;52.96;71082.81;5093612;28;20196;-80
2023/06/22 09:44:54;;;;;;;13.07;10.88;;;;;;;-143.21;53.57;71070.91;5093747;28;20600;-83
2023/06/22 09:47:20;;;;;;;16.92;11.38;;;;;;;-143.21;53.70;71057.03;5095152;28;20220;-84
2023/06/22 09:49:47;;;;;;;12.63;10.95;;;;;;;-143.21;54.22;71039.19;5093456;28;20193;-82
2023/06/22 09:52:14;;;;;;;12.85;10.45;;;;;;;-143.21;52.67;71023.34;5093358;28;20732;-82
2023/06/22 09:54:41;;;;;;;11.05;9.95;;;;;;;-143.21;51.83;71005.50;5084045;28;20205;-82
2023/06/22 09:57:08;;;;;;;11.93;10.73;;;;;;;-143.21;52.04;71003.50;5073010;28;20186;-82
2023/06/22 09:59:36;;;;;;;11.13;9.90;;;;;;;-143.21;52.43;71001.53;5072925;28;20251;-82
2023/06/22 10:02:03;;;;;;;14.63;9.32;;;;;;;-143.21;53.07;70999.53;5072907;28;20687;-82
2023/06/22 10:04:30;;;;;;;18.67;11.57;;;;;;;-143.21;51.40;70987.66;5073109;28;20204;-81
2023/06/22 10:06:56;;;;;;;14.70;10.43;;;;;;;-143.21;51.85;70975.75;5073094;28;20212;-82
2023/06/22 10:09:23;;;;;;;11.27;9.98;;;;;;;-143.21;52.08;70965.84;5072667;28;20672;-82
2023/06/22 10:11:50;;;;;;;12.98;10.75;;;;;;;-143.21;52.57;70949.97;5071990;28;20638;-82
2023/06/22 10:14:17;;;;;;;14.27;10.85;;;;;;;-143.21;52.43;70930.16;5072755;28;20254;-83
2023/06/22 10:16:45;;;;;;;13.02;10.55;;;;;;;-143.21;50.56;70910.34;5073669;28;20197;-83
2023/06/22 10:19:12;;;;;;;17.67;10.82;;;;;;;-143.21;49.45;70892.50;5073016;28;20201;-82
2023/06/22 10:21:39;;;;;;;15.00;10.40;;;;;;;-143.21;49.47;70892.50;5093136;28;20285;-82
2023/06/22 10:24:06;;;;;;;12.93;10.52;;;;;;;-143.21;49.00;70878.63;5092940;28;20196;-81
2023/06/22 10:26:33;;;;;;;11.35;10.02;;;;;;;-143.21;48.92;70860.78;5069871;28;20259;-79
2023/06/22 10:29:00;;;;;;;11.48;9.70;;;;;;;-143.21;47.45;70856.81;5065735;28;20197;-81
2023/06/22 10:31:27;;;;;;;11.15;9.30;;;;;;;-143.21;47.42;70842.94;5072099;28;20711;-78
2023/06/22 10:33:56;;;;;;;13.05;9.98;;;;;;;-143.21;46.91;70829.06;5072131;28;20720;-79
2023/06/22 10:36:23;;;;;;;11.02;9.30;;;;;;;-143.21;47.22;70837.00;5085463;28;20197;-79
2023/06/22 10:38:50;;;;;;;11.07;9.30;;;;;;;-143.21;48.22;70813.19;5092620;28;20196;-79
2023/06/22 10:41:17;;;;;;;10.98;9.93;;;;;;;-143.21;46.82;70801.31;5092198;28;20227;-79
2023/06/22 10:43:44;;;;;;;13.90;10.15;;;;;;;-143.21;46.24;70773.56;5092054;28;20551;-80
2023/06/22 10:46:11;;;;;;;12.73;10.02;;;;;;;-143.21;46.04;70757.69;5092098;28;20250;-80
2023/06/22 10:48:38;;;;;;;11.52;9.50;;;;;;;-143.21;45.61;70731.94;5091543;28;20239;-79
2023/06/22 10:51:08;;;;;;;13.38;9.35;;;;;;;-143.21;45.56;70708.16;5092280;28;20196;-81
2023/06/22 10:53:35;;;;;;;11.57;10.15;;;;;;;-143.21;45.56;70690.31;5091900;28;20192;-81
2023/06/22 10:56:02;;;;;;;11.98;10.02;;;;;;;-143.21;44.35;70672.47;5092027;28;20192;-81
2023/06/22 10:58:29;;;;;;;11.70;10.05;;;;;;;-143.21;44.88;70650.66;5092296;28;20192;-81
2023/06/22 11:00:56;;;;;;;11.18;9.02;;;;;;;-143.21;44.32;70626.88;5092074;28;20217;-79
2023/06/22 11:04:20;;;;;;;10.25;9.25;;;;;;;-143.21;43.22;70605.06;5083715;28;21433;-80
2023/06/22 11:06:49;;;;;;;10.10;8.90;;;;;;;-143.21;43.03;70601.09;5081005;28;20217;-80